Time;durP1;ratioP1;P1;durP2;ratioP2;P2;SDS_P1;SDS_P2;PMS_P1;PMS_P2;Temp;Humidity;BMP_temperature;BMP_pressure;BME280_temperature;BME280_humidity;BME280_pressure;Samples;Min_cycle;Max_cycle;Signal;HPM_P1;HPM_P2
2022/04/18 14:46:35;;;;;;;5.82;4.40;;;26.90;32.10;;;;;;5195933;27;146659;-67
2022/04/18 14:49:01;;;;;;;6.40;5.18;;;25.90;33.20;;;;;;5209093;27;20045;-70
2022/04/18 14:51:27;;;;;;;7.13;5.53;;;26.10;34.20;;;;;;5188548;27;20042;-69
2022/04/18 14:53:53;;;;;;;6.18;5.40;;;24.70;32.80;;;;;;5182777;27;20050;-69
2022/04/18 14:56:19;;;;;;;7.93;5.32;;;24.80;34.30;;;;;;5186435;27;20052;-68
2022/04/18 14:58:44;;;;;;;6.78;5.70;;;23.80;36.50;;;;;;5186489;27;20116;-67
2022/04/18 15:01:10;;;;;;;5.97;4.93;;;23.70;37.30;;;;;;5169972;27;20038;-70
2022/04/18 15:03:36;;;;;;;5.70;5.13;;;23.60;37.40;;;;;;5187266;27;20050;-70
2022/04/18 15:06:02;;;;;;;6.78;5.30;;;23.00;36.60;;;;;;5186469;27;20046;-66
2022/04/18 15:08:27;;;;;;;7.10;5.05;;;23.10;37.50;;;;;;5205334;27;20038;-69
2022/04/18 15:10:53;;;;;;;6.65;5.28;;;22.90;36.70;;;;;;5169911;27;20049;-67
2022/04/18 15:13:19;;;;;;;5.30;4.80;;;22.40;37.30;;;;;;5207370;27;20100;-67
2022/04/18 15:15:44;;;;;;;7.28;5.90;;;22.20;37.00;;;;;;5204943;27;20041;-66
2022/04/18 15:18:10;;;;;;;6.65;5.68;;;22.20;35.90;;;;;;5204835;27;20073;-67
2022/04/18 15:20:36;;;;;;;6.13;5.40;;;22.20;37.10;;;;;;5185109;27;20038;-68
2022/04/18 15:23:02;;;;;;;6.00;4.95;;;22.00;38.50;;;;;;5184863;27;20042;-67
2022/04/18 15:25:28;;;;;;;6.35;5.65;;;22.00;38.10;;;;;;5207672;27;20151;-71
2022/04/18 15:27:53;;;;;;;6.47;5.60;;;22.10;39.20;;;;;;5186177;27;20034;-69
2022/04/18 15:33:04;;;;;;;6.40;5.78;;;22.00;39.40;;;;;;5205500;27;20052;-71
2022/04/18 15:35:29;;;;;;;8.23;5.45;;;21.70;39.80;;;;;;5150238;27;20070;-68
2022/04/18 15:37:55;;;;;;;7.93;6.35;;;21.60;40.30;;;;;;5169306;27;20057;-67
2022/04/18 15:40:21;;;;;;;7.95;5.90;;;21.40;39.60;;;;;;5185661;27;20042;-66
2022/04/18 15:42:47;;;;;;;7.32;5.80;;;21.30;40.30;;;;;;5185613;27;20102;-66
2022/04/18 15:45:13;;;;;;;5.85;4.93;;;21.30;40.20;;;;;;5174304;27;20502;-66
2022/04/18 15:47:43;;;;;;;6.85;4.93;;;21.10;39.80;;;;;;5162242;27;20053;-66
2022/04/18 15:50:09;;;;;;;6.55;5.85;;;21.30;37.00;;;;;;5161341;27;20047;-66
2022/04/18 15:52:35;;;;;;;5.93;5.32;;;21.30;38.00;;;;;;5163249;27;20042;-69
2022/04/18 15:55:01;;;;;;;5.95;5.13;;;21.40;38.60;;;;;;5162351;27;20473;-72
2022/04/18 15:57:27;;;;;;;6.10;5.32;;;21.10;39.70;;;;;;5132574;27;20051;-73
2022/04/18 15:59:52;;;;;;;7.70;5.47;;;21.20;40.00;;;;;;5143027;27;20054;-73
2022/04/18 16:02:18;;;;;;;5.68;4.60;;;21.30;38.20;;;;;;5148975;27;20051;-71
2022/04/18 16:04:44;;;;;;;6.57;5.88;;;21.20;39.50;;;;;;5142941;27;20088;-71
2022/04/18 16:07:10;;;;;;;9.65;6.03;;;21.20;39.60;;;;;;5148554;27;20120;-73
2022/04/18 16:09:36;;;;;;;5.60;4.50;;;21.20;39.50;;;;;;5142357;27;20047;-73
2022/04/18 16:12:02;;;;;;;7.35;5.43;;;21.00;38.30;;;;;;5147463;27;20047;-72
2022/04/18 16:14:28;;;;;;;7.10;6.18;;;20.90;37.90;;;;;;5146872;27;20039;-72
2022/04/18 16:16:56;;;;;;;6.85;5.60;;;20.80;39.00;;;;;;5126925;27;20047;-73
2022/04/18 16:19:22;;;;;;;5.80;5.20;;;20.90;39.70;;;;;;5146899;27;20119;-73
2022/04/18 16:21:48;;;;;;;9.50;5.85;;;20.50;38.30;;;;;;5146514;27;20432;-70
2022/04/18 16:24:16;;;;;;;10.52;6.22;;;20.50;39.60;;;;;;5129669;27;20043;-69
2022/04/18 16:26:42;;;;;;;8.35;6.20;;;20.40;40.30;;;;;;5145855;27;20069;-68
2022/04/18 16:31:53;;;;;;;7.35;5.97;;;20.20;40.70;;;;;;5147757;27;20070;-73
2022/04/18 16:34:20;;;;;;;7.70;5.55;;;20.10;40.30;;;;;;5148268;27;20040;-68
2022/04/18 16:36:47;;;;;;;7.10;5.65;;;20.10;41.60;;;;;;5147165;27;20043;-69
2022/04/18 16:39:13;;;;;;;6.63;5.90;;;20.00;42.30;;;;;;5129797;27;20057;-71
2022/04/18 16:47:08;;;;;;;6.45;5.38;;;19.90;41.50;;;;;;5166543;27;20078;-68
2022/04/18 16:49:33;;;;;;;6.22;5.38;;;19.80;42.10;;;;;;5170656;27;20046;-68
2022/04/18 16:52:00;;;;;;;7.32;6.20;;;19.80;41.20;;;;;;5171105;27;20046;-68
2022/04/18 16:54:25;;;;;;;7.43;6.38;;;20.00;40.90;;;;;;5189754;27;20034;-68
2022/04/18 16:56:51;;;;;;;7.35;6.18;;;19.90;41.70;;;;;;5189130;27;20042;-67
2022/04/18 16:59:17;;;;;;;7.07;5.38;;;20.00;41.80;;;;;;5170673;27;20137;-68
2022/04/18 17:01:44;;;;;;;7.65;5.90;;;20.00;42.50;;;;;;5177861;27;20043;-67
2022/04/18 17:04:10;;;;;;;7.25;6.35;;;19.80;44.70;;;;;;5177830;27;20405;-73
2022/04/18 17:06:35;;;;;;;6.93;5.88;;;19.70;44.50;;;;;;5125353;27;20120;-74
2022/04/18 17:09:01;;;;;;;6.28;5.68;;;19.50;43.90;;;;;;5184000;27;20037;-70
2022/04/18 17:11:27;;;;;;;6.57;5.20;;;19.40;43.90;;;;;;5149598;27;20062;-71
2022/04/18 17:13:53;;;;;;;6.10;5.05;;;19.30;45.10;;;;;;5165171;27;20038;-68
2022/04/18 17:16:19;;;;;;;7.80;5.97;;;19.30;44.80;;;;;;5189333;27;20046;-68
2022/04/18 17:18:46;;;;;;;5.75;5.10;;;19.30;45.10;;;;;;5162308;27;20046;-68
2022/04/18 17:21:12;;;;;;;6.80;5.70;;;19.40;45.60;;;;;;5166554;27;20042;-72
2022/04/18 17:23:38;;;;;;;6.63;6.00;;;19.50;45.00;;;;;;5132449;27;20046;-68
2022/04/18 17:26:04;;;;;;;8.35;5.90;;;19.80;43.80;;;;;;5136555;27;20077;-68
2022/04/18 17:28:31;;;;;;;6.88;6.18;;;19.90;43.50;;;;;;5163087;27;20057;-68
2022/04/18 17:30:58;;;;;;;7.18;5.65;;;19.90;43.50;;;;;;5166409;27;20050;-68
2022/04/18 17:33:24;;;;;;;7.53;5.93;;;19.80;44.20;;;;;;5153106;27;20042;-71
2022/04/18 17:35:49;;;;;;;7.57;5.93;;;19.90;44.00;;;;;;5132468;27;20128;-69
2022/04/18 17:38:15;;;;;;;9.10;5.70;;;19.70;42.50;;;;;;5167443;27;20067;-68
2022/04/18 17:40:41;;;;;;;6.93;5.85;;;19.60;43.60;;;;;;5167596;27;20099;-68
2022/04/18 17:43:06;;;;;;;10.05;5.60;;;19.60;44.60;;;;;;5167456;27;20498;-67
2022/04/18 17:45:32;;;;;;;6.13;5.25;;;19.40;46.90;;;;;;5114615;27;20112;-65
2022/04/18 17:47:58;;;;;;;6.28;5.32;;;19.20;49.40;;;;;;5149802;27;20088;-69
2022/04/18 17:50:24;;;;;;;6.63;5.72;;;19.00;49.80;;;;;;5167637;27;20478;-69
2022/04/18 17:52:50;;;;;;;7.65;5.90;;;18.90;50.30;;;;;;5149047;27;20042;-68
2022/04/18 17:58:02;;;;;;;7.30;5.47;;;18.80;50.40;;;;;;5148574;27;20047;-69
2022/04/18 18:00:28;;;;;;;9.27;6.10;;;18.70;50.80;;;;;;5168344;27;20057;-67
2022/04/18 18:02:54;;;;;;;5.93;5.05;;;18.60;51.00;;;;;;5165837;27;20115;-68
2022/04/18 18:05:20;;;;;;;6.65;5.45;;;18.40;52.90;;;;;;5187600;27;20102;-68
2022/04/18 18:07:47;;;;;;;9.68;5.63;;;18.30;53.80;;;;;;5169254;27;20066;-66
2022/04/18 18:10:12;;;;;;;7.90;5.25;;;18.00;55.60;;;;;;5152120;27;20097;-67
2022/04/18 18:12:39;;;;;;;5.55;4.95;;;17.80;65.00;;;;;;5187955;27;20496;-68
2022/04/18 18:15:05;;;;;;;6.28;4.80;;;17.40;93.90;;;;;;5169061;27;20042;-69
2022/04/18 18:17:37;;;;;;;6.45;4.85;;;17.20;97.70;;;;;;5169418;27;20135;-69
2022/04/18 18:20:06;;;;;;;7.30;4.78;;;17.00;98.50;;;;;;5168822;27;20050;-69
2022/04/18 18:22:34;;;;;;;5.18;4.38;;;16.70;99.90;;;;;;5169600;27;20122;-69
2022/04/18 18:25:04;;;;;;;6.72;5.00;;;16.40;99.90;;;;;;5151438;27;20034;-69
2022/04/18 18:27:30;;;;;;;6.90;5.00;;;16.10;99.90;;;;;;5187928;27;20050;-69
2022/04/18 18:29:58;;;;;;;7.65;5.45;;;15.90;99.90;;;;;;5171100;27;20037;-70
2022/04/18 18:32:23;;;;;;;8.13;5.72;;;15.70;99.90;;;;;;5174729;27;20042;-69
2022/04/18 18:34:49;;;;;;;8.32;6.20;;;15.60;99.90;;;;;;5168898;27;20101;-68
2022/04/18 18:37:15;;;;;;;11.07;6.60;;;15.40;99.90;;;;;;5168943;27;20063;-65
2022/04/18 18:39:41;;;;;;;10.98;7.00;;;15.30;99.90;;;;;;5171464;27;20038;-64
2022/04/18 18:42:07;;;;;;;8.00;6.50;;;15.20;99.90;;;;;;5190936;27;20045;-65
2022/04/18 18:44:33;;;;;;;7.72;6.35;;;15.20;99.90;;;;;;5168638;27;20103;-65
2022/04/18 18:46:58;;;;;;;8.00;7.05;;;15.20;99.90;;;;;;5186390;27;20031;-64
2022/04/18 18:49:24;;;;;;;8.43;7.57;;;15.00;99.90;;;;;;5167906;27;20070;-64
2022/04/18 18:54:34;;;;;;;8.10;7.22;;;14.50;99.90;;;;;;5170743;27;20057;-64
2022/04/18 18:57:00;;;;;;;9.18;7.57;;;14.40;99.90;;;;;;5168321;27;20075;-64
2022/04/18 18:59:25;;;;;;;11.30;7.65;;;14.40;99.90;;;;;;5168164;27;20425;-64
2022/04/18 19:01:51;;;;;;;11.25;9.20;;;14.50;99.90;;;;;;5187573;27;20031;-65
2022/04/18 19:04:17;;;;;;;12.27;11.02;;;14.30;99.90;;;;;;5168638;27;20054;-67
2022/04/18 19:06:43;;;;;;;12.57;10.60;;;14.20;99.90;;;;;;5152303;27;20079;-65
2022/04/18 19:09:08;;;;;;;10.20;9.30;;;14.20;99.90;;;;;;5186699;27;20041;-64
2022/04/18 19:11:36;;;;;;;9.48;8.48;;;14.10;99.90;;;;;;5162563;27;20061;-65
2022/04/18 19:14:02;;;;;;;14.05;8.52;;;13.80;99.90;;;;;;5151044;27;20057;-65
2022/04/18 19:16:28;;;;;;;11.15;9.25;;;13.40;99.90;;;;;;5135863;27;20050;-65
2022/04/18 19:27:07;;;;;;;9.35;8.05;;;13.10;99.90;;;;;;5168283;27;20047;-65
2022/04/18 19:29:33;;;;;;;11.60;8.32;;;13.10;99.90;;;;;;5168973;27;20046;-65
2022/04/18 19:31:59;;;;;;;9.38;6.95;;;13.10;99.90;;;;;;5150466;27;20046;-65
2022/04/18 19:34:25;;;;;;;10.40;7.35;;;12.70;99.90;;;;;;5156643;27;20060;-65
2022/04/18 19:36:51;;;;;;;9.13;7.30;;;12.40;99.90;;;;;;5154282;27;20046;-64
2022/04/18 19:39:16;;;;;;;10.95;7.72;;;12.30;99.90;;;;;;5170971;27;20117;-64
2022/04/18 19:41:43;;;;;;;10.55;7.53;;;12.30;99.90;;;;;;5173128;27;20042;-63
2022/04/18 19:44:09;;;;;;;9.60;7.90;;;12.20;99.90;;;;;;5152085;27;20038;-63
2022/04/18 19:46:35;;;;;;;11.50;7.88;;;12.10;99.90;;;;;;5152936;27;20508;-65
2022/04/18 19:49:02;;;;;;;9.90;8.60;;;12.00;99.90;;;;;;5171950;27;20056;-63
2022/04/18 19:51:32;;;;;;;12.32;9.00;;;12.00;99.90;;;;;;5171659;27;20046;-63
2022/04/18 19:54:01;;;;;;;;;;;11.80;99.90;;;;;;5154114;27;20043;-64
2022/04/18 19:56:34;;;;;;;11.52;7.88;;;11.70;99.90;;;;;;5166801;27;19926;-63
2022/04/18 19:59:00;;;;;;;10.43;7.90;;;11.70;99.90;;;;;;5165599;27;20046;-64
2022/04/18 20:01:27;;;;;;;9.48;7.43;;;11.50;99.90;;;;;;5171836;27;20362;-64
2022/04/18 20:03:55;;;;;;;9.57;7.45;;;11.30;99.90;;;;;;5154103;27;20110;-64
2022/04/18 20:06:21;;;;;;;10.68;7.93;;;11.40;99.90;;;;;;5171576;27;20066;-64
2022/04/18 20:08:49;;;;;;;10.10;8.30;;;11.60;99.90;;;;;;5172177;27;20076;-64
2022/04/18 20:11:16;;;;;;;9.93;8.70;;;11.70;99.90;;;;;;5190740;27;20054;-63
2022/04/18 20:13:42;;;;;;;10.05;8.20;;;11.80;99.90;;;;;;5171326;27;20038;-64
2022/04/18 20:16:10;;;;;;;9.40;8.27;;;11.70;99.90;;;;;;5171556;27;20065;-64
2022/04/18 20:18:36;;;;;;;9.57;8.18;;;11.60;99.90;;;;;;5171300;27;20057;-64
2022/04/18 20:21:06;;;;;;;11.07;8.52;;;11.60;99.90;;;;;;5190428;27;20034;-63
2022/04/18 20:23:34;;;;;;;9.60;7.70;;;11.40;99.90;;;;;;5190353;27;20151;-64
2022/04/18 20:26:01;;;;;;;12.90;8.20;;;11.20;99.90;;;;;;5189883;27;20046;-63
2022/04/18 20:28:27;;;;;;;11.85;8.80;;;11.00;99.90;;;;;;5189731;27;20050;-63
2022/04/18 20:30:53;;;;;;;11.00;8.00;;;10.90;99.90;;;;;;5170913;27;20065;-63
2022/04/18 20:33:19;;;;;;;10.18;7.60;;;10.80;99.90;;;;;;5189644;27;20110;-64
2022/04/18 20:35:45;;;;;;;9.52;8.27;;;10.80;99.90;;;;;;5189679;27;20042;-63
2022/04/18 20:38:11;;;;;;;11.43;8.65;;;10.70;99.90;;;;;;5171706;27;20075;-63
2022/04/18 20:40:38;;;;;;;11.02;7.85;;;10.60;99.90;;;;;;5171722;27;20046;-64
2022/04/18 20:43:05;;;;;;;10.65;8.65;;;10.50;99.90;;;;;;5171268;27;20049;-63
2022/04/18 20:45:31;;;;;;;8.88;7.32;;;10.30;99.90;;;;;;5189980;27;20291;-64
2022/04/18 20:47:57;;;;;;;10.90;8.57;;;10.30;99.90;;;;;;5190103;27;20038;-63
2022/04/18 20:50:24;;;;;;;13.73;7.93;;;10.40;99.90;;;;;;5170409;27;20101;-64
2022/04/18 20:58:31;;;;;;;11.13;8.07;;;10.40;99.90;;;;;;5164663;27;20121;-63
2022/04/18 21:00:58;;;;;;;12.60;8.70;;;10.40;99.90;;;;;;5155325;27;20102;-63
2022/04/18 21:03:24;;;;;;;10.15;8.52;;;10.60;99.90;;;;;;5170945;27;20052;-63
2022/04/18 21:05:50;;;;;;;11.90;8.63;;;10.60;99.90;;;;;;5170088;27;20042;-63
2022/04/18 21:08:17;;;;;;;10.68;9.15;;;10.80;99.90;;;;;;5189355;27;20041;-63
2022/04/18 21:10:45;;;;;;;10.68;8.18;;;10.90;99.90;;;;;;5189697;27;20053;-63
2022/04/18 21:13:12;;;;;;;11.07;7.25;;;10.80;99.90;;;;;;5171308;27;20058;-64
2022/04/18 21:15:37;;;;;;;9.75;8.15;;;10.60;99.90;;;;;;5166487;27;20057;-64
2022/04/18 21:18:04;;;;;;;10.52;7.55;;;10.40;99.90;;;;;;5189855;27;20042;-63
2022/04/18 21:20:31;;;;;;;7.70;6.78;;;10.30;99.90;;;;;;5171409;27;20507;-63
2022/04/18 21:22:58;;;;;;;7.97;6.32;;;10.40;99.90;;;;;;5168130;27;20079;-64
2022/04/18 21:25:25;;;;;;;10.23;7.10;;;10.40;99.90;;;;;;5184540;27;20094;-63
2022/04/18 21:27:53;;;;;;;8.68;7.13;;;10.40;99.90;;;;;;5170824;27;20046;-63
2022/04/18 21:30:23;;;;;;;9.60;7.72;;;10.30;99.90;;;;;;5164151;27;20042;-64
2022/04/18 21:32:52;;;;;;;9.38;7.82;;;10.20;99.90;;;;;;5170289;27;20042;-63
2022/04/18 21:35:19;;;;;;;9.13;7.47;;;10.20;99.90;;;;;;5170132;27;20054;-63
2022/04/18 21:37:45;;;;;;;9.98;7.18;;;10.00;99.90;;;;;;5170391;27;20098;-63
2022/04/18 21:40:11;;;;;;;9.63;7.70;;;9.70;99.90;;;;;;5170319;27;20141;-64
2022/04/18 21:42:38;;;;;;;9.43;8.07;;;9.60;99.90;;;;;;5170064;27;20043;-63
2022/04/18 21:45:06;;;;;;;9.40;8.18;;;9.40;99.90;;;;;;5149884;27;20069;-64
2022/04/18 21:47:35;;;;;;;9.70;8.38;;;9.50;99.90;;;;;;5165004;27;20051;-64
2022/04/18 21:50:02;;;;;;;10.00;8.10;;;9.40;99.90;;;;;;5162531;27;20089;-64
2022/04/18 21:52:28;;;;;;;10.63;7.30;;;9.20;99.90;;;;;;5166618;27;20039;-63
2022/04/18 21:54:55;;;;;;;8.32;6.88;;;9.20;99.90;;;;;;5167503;27;20109;-64
2022/04/18 21:57:21;;;;;;;7.95;7.15;;;9.00;99.90;;;;;;5168021;27;20666;-63
2022/04/18 21:59:48;;;;;;;8.18;7.38;;;8.80;99.90;;;;;;5168084;27;20431;-63
2022/04/18 22:02:18;;;;;;;8.65;7.00;;;8.70;99.90;;;;;;5167840;27;20054;-63
2022/04/18 22:04:48;;;;;;;9.00;7.93;;;8.60;99.90;;;;;;5166670;27;20516;-63
2022/04/18 22:07:18;;;;;;;9.38;7.75;;;8.30;99.90;;;;;;5160035;27;20051;-63
2022/04/18 22:09:44;;;;;;;9.57;7.85;;;8.30;99.90;;;;;;5165408;27;20042;-64
2022/04/18 22:12:10;;;;;;;10.10;7.85;;;8.30;99.90;;;;;;5166485;27;20042;-63
2022/04/18 22:14:37;;;;;;;8.43;7.60;;;8.20;99.90;;;;;;5167887;27;20393;-63
2022/04/18 22:17:04;;;;;;;7.90;7.00;;;8.40;99.90;;;;;;5161118;27;20039;-63
2022/04/18 22:24:58;;;;;;;9.82;8.40;;;8.20;99.90;;;;;;5167298;27;20046;-63
2022/04/18 22:27:34;;;;;;;9.25;8.15;;;8.20;99.90;;;;;;5172087;27;20051;-63
2022/04/18 22:30:05;;;;;;;11.10;9.07;;;8.30;99.90;;;;;;5167880;27;20035;-63
2022/04/18 22:32:35;;;;;;;11.68;8.60;;;8.40;99.90;;;;;;5159870;27;20103;-63
2022/04/18 22:35:01;;;;;;;11.95;9.10;;;8.40;99.90;;;;;;5161205;27;20535;-63
2022/04/18 22:37:28;;;;;;;9.55;8.48;;;8.60;99.90;;;;;;5161175;27;20039;-63
2022/04/18 22:40:01;;;;;;;10.48;8.45;;;8.60;99.90;;;;;;5167456;27;20046;-63
2022/04/18 22:42:27;;;;;;;11.80;8.95;;;8.50;99.90;;;;;;5159859;27;20046;-63
2022/04/18 22:44:56;;;;;;;9.60;8.15;;;8.40;99.90;;;;;;5171075;27;20500;-64
2022/04/18 22:47:25;;;;;;;11.40;8.23;;;8.60;99.90;;;;;;5188580;27;20106;-63
2022/04/18 22:49:51;;;;;;;11.30;8.67;;;8.40;99.90;;;;;;5187572;27;20495;-63
2022/04/18 22:52:18;;;;;;;10.63;7.80;;;8.30;99.90;;;;;;5168866;27;20291;-63
2022/04/18 22:54:44;;;;;;;11.32;8.88;;;8.30;99.90;;;;;;5186539;27;20059;-63
2022/04/18 22:57:10;;;;;;;10.38;8.48;;;8.20;99.90;;;;;;5187533;27;20034;-63
2022/04/18 22:59:37;;;;;;;11.07;8.20;;;8.20;99.90;;;;;;5187354;27;20046;-63
2022/04/18 23:02:11;;;;;;;11.55;8.05;;;8.20;99.90;;;;;;5163922;27;20072;-63
2022/04/18 23:04:38;;;;;;;11.95;9.23;;;8.30;99.90;;;;;;5182214;27;20041;-63
2022/04/18 23:07:05;;;;;;;11.70;8.45;;;8.10;99.90;;;;;;5171144;27;20397;-63
2022/04/18 23:09:34;;;;;;;11.32;8.73;;;8.10;99.90;;;;;;5192130;27;20516;-63
2022/04/18 23:12:00;;;;;;;10.52;8.18;;;8.10;99.90;;;;;;5172855;27;20053;-63
2022/04/18 23:14:26;;;;;;;11.82;7.93;;;7.80;99.90;;;;;;5173267;27;20077;-63
2022/04/18 23:16:51;;;;;;;9.32;7.65;;;7.80;99.90;;;;;;5173632;27;20034;-63
2022/04/18 23:19:17;;;;;;;9.65;7.55;;;7.80;99.90;;;;;;5172217;27;20057;-63
2022/04/18 23:21:43;;;;;;;12.25;8.13;;;7.80;99.90;;;;;;5187813;27;20033;-63
2022/04/18 23:24:09;;;;;;;9.45;8.43;;;7.60;99.90;;;;;;5172908;27;20477;-63
2022/04/18 23:26:36;;;;;;;12.77;8.20;;;7.50;99.90;;;;;;5169743;27;20121;-63
2022/04/18 23:29:05;;;;;;;14.27;9.43;;;7.60;99.90;;;;;;5180531;27;20039;-63
2022/04/18 23:31:30;;;;;;;12.15;9.40;;;7.50;99.90;;;;;;5173089;27;20053;-63
2022/04/18 23:33:56;;;;;;;12.90;8.95;;;7.50;99.90;;;;;;5191738;27;20038;-63
2022/04/18 23:36:22;;;;;;;11.80;8.48;;;7.40;99.90;;;;;;5172752;27;20045;-63
2022/04/18 23:38:47;;;;;;;11.40;8.82;;;7.40;99.90;;;;;;5191137;27;20046;-63
2022/04/18 23:42:13;;;;;;;10.75;8.30;;;7.40;99.90;;;;;;5191292;27;20038;-63
2022/04/18 23:44:10;;;;;;;15.05;10.48;;;7.50;99.90;;;;;;5167635;27;20043;-63
2022/04/18 23:46:37;;;;;;;9.32;8.05;;;7.40;99.90;;;;;;5191337;27;20086;-63
2022/04/18 23:49:03;;;;;;;16.15;8.95;;;7.20;99.90;;;;;;5190126;27;20034;-63
2022/04/18 23:51:29;;;;;;;13.35;9.05;;;7.00;99.90;;;;;;5185628;27;20052;-63
2022/04/18 23:53:54;;;;;;;12.75;8.82;;;7.10;99.90;;;;;;5188128;27;20038;-63
2022/04/18 23:56:20;;;;;;;13.63;9.93;;;7.10;99.90;;;;;;5191761;27;20034;-63
2022/04/18 23:58:46;;;;;;;12.98;9.35;;;7.10;99.90;;;;;;5172734;27;20042;-63
